Lithia Springs, Georgia
Current Conditions -  °F | °C
As of 10:53 AM on Sunday 25 Jan 2015 (Local Time) from KFTY Reporting Station
Clear Clear  
Wind Chill: 39°   Ceiling: Unl
Heat Index: 44°   Visibility: 10mi
Dew Point: 31°   Wind: 9mph
Humidity: 60%   Direction: 210°SSW
Pressure: 29.93"   Gusts: NA
Location:  33.79°N, 84.66°W
Report Text: KFTY 251553Z AUTO 21008KT 10SM CLR 07/M01 A2993 RMK AO2 SLP139 T00671006
Loading
Personal Weather Stations






























Interactive Weather Map New forecast layout! Learn more

10-Day Weather Forecast

Advertisements
Track Severe Weather on mobile